sensor_id;sensor_type;location;lat;lon;timestamp;pressure;altitude;pressure_sealevel;temperature;humidity
70314;BME280;71040;47.526;18.986;2023-12-20T00:00:36;99911.09;;;14.12;56.71
70314;BME280;71040;47.526;18.986;2023-12-20T00:05:39;99915.34;;;14.15;56.60
70314;BME280;71040;47.526;18.986;2023-12-20T00:10:41;99904.66;;;14.18;56.45
70314;BME280;71040;47.526;18.986;2023-12-20T00:15:48;99894.81;;;14.22;56.53
70314;BME280;71040;47.526;18.986;2023-12-20T00:20:49;99889.53;;;14.22;56.33
70314;BME280;71040;47.526;18.986;2023-12-20T00:25:51;99879.97;;;14.21;56.40
70314;BME280;71040;47.526;18.986;2023-12-20T00:30:52;99877.41;;;14.19;56.32
70314;BME280;71040;47.526;18.986;2023-12-20T00:35:52;99872.84;;;14.23;56.45
70314;BME280;71040;47.526;18.986;2023-12-20T00:40:52;99869.28;;;14.24;56.50
70314;BME280;71040;47.526;18.986;2023-12-20T00:45:53;99850.88;;;14.24;56.33
70314;BME280;71040;47.526;18.986;2023-12-20T00:50:53;99827.56;;;14.18;56.40
70314;BME280;71040;47.526;18.986;2023-12-20T00:55:54;99829.84;;;14.24;56.25
70314;BME280;71040;47.526;18.986;2023-12-20T01:00:54;99833.31;;;14.24;56.26
70314;BME280;71040;47.526;18.986;2023-12-20T01:05:58;99823.66;;;14.25;56.36
70314;BME280;71040;47.526;18.986;2023-12-20T01:11:05;99813.88;;;14.27;56.18
70314;BME280;71040;47.526;18.986;2023-12-20T01:16:06;99815.59;;;14.28;56.10
70314;BME280;71040;47.526;18.986;2023-12-20T01:21:06;99808.53;;;14.28;56.25
70314;BME280;71040;47.526;18.986;2023-12-20T01:26:07;99795.41;;;14.28;56.04
70314;BME280;71040;47.526;18.986;2023-12-20T01:31:08;99795.41;;;14.28;56.18
70314;BME280;71040;47.526;18.986;2023-12-20T01:36:08;99781.41;;;14.28;56.06
70314;BME280;71040;47.526;18.986;2023-12-20T01:41:09;99777.00;;;14.28;56.32
70314;BME280;71040;47.526;18.986;2023-12-20T01:46:10;99758.66;;;14.27;56.13
70314;BME280;71040;47.526;18.986;2023-12-20T01:51:13;99766.56;;;14.27;56.11
70314;BME280;71040;47.526;18.986;2023-12-20T01:56:14;99746.38;;;14.27;56.20
70314;BME280;71040;47.526;18.986;2023-12-20T02:01:16;99735.84;;;14.27;55.93
70314;BME280;71040;47.526;18.986;2023-12-20T02:06:18;99722.69;;;14.27;56.21
70314;BME280;71040;47.526;18.986;2023-12-20T02:11:19;99707.00;;;14.26;56.16
70314;BME280;71040;47.526;18.986;2023-12-20T02:16:19;99709.72;;;14.24;56.11
70314;BME280;71040;47.526;18.986;2023-12-20T02:21:40;99699.41;;;14.21;56.18
70314;BME280;71040;47.526;18.986;2023-12-20T02:26:41;99694.22;;;14.20;56.31
70314;BME280;71040;47.526;18.986;2023-12-20T02:31:41;99687.09;;;14.22;56.04
70314;BME280;71040;47.526;18.986;2023-12-20T02:36:42;99676.50;;;14.23;56.20
70314;BME280;71040;47.526;18.986;2023-12-20T02:41:45;99666.72;;;14.25;55.94
70314;BME280;71040;47.526;18.986;2023-12-20T02:46:45;99665.13;;;14.23;55.83
70314;BME280;71040;47.526;18.986;2023-12-20T02:51:45;99654.53;;;14.24;56.10
70314;BME280;71040;47.526;18.986;2023-12-20T02:56:47;99655.44;;;14.23;55.93
70314;BME280;71040;47.526;18.986;2023-12-20T03:01:47;99647.56;;;14.23;55.87
70314;BME280;71040;47.526;18.986;2023-12-20T03:06:47;99639.78;;;14.22;55.90
70314;BME280;71040;47.526;18.986;2023-12-20T03:11:48;99641.47;;;14.23;55.79
70314;BME280;71040;47.526;18.986;2023-12-20T03:16:51;99650.09;;;14.25;55.55
70314;BME280;71040;47.526;18.986;2023-12-20T03:21:52;99657.31;;;14.21;55.75
70314;BME280;71040;47.526;18.986;2023-12-20T03:26:53;99658.38;;;14.19;55.86
70314;BME280;71040;47.526;18.986;2023-12-20T03:31:54;99660.16;;;14.18;55.74
70314;BME280;71040;47.526;18.986;2023-12-20T03:36:54;99662.78;;;14.18;55.79
70314;BME280;71040;47.526;18.986;2023-12-20T03:41:57;99647.88;;;14.19;55.65
70314;BME280;71040;47.526;18.986;2023-12-20T03:46:57;99637.34;;;14.19;55.65
70314;BME280;71040;47.526;18.986;2023-12-20T03:51:58;99650.38;;;14.20;55.63
70314;BME280;71040;47.526;18.986;2023-12-20T03:56:58;99647.75;;;14.20;55.67
70314;BME280;71040;47.526;18.986;2023-12-20T04:01:59;99635.53;;;14.19;55.58
70314;BME280;71040;47.526;18.986;2023-12-20T04:06:59;99641.84;;;14.17;55.63
70314;BME280;71040;47.526;18.986;2023-12-20T04:11:59;99629.72;;;14.14;55.70
70314;BME280;71040;47.526;18.986;2023-12-20T04:17:00;99642.88;;;14.14;55.78
70314;BME280;71040;47.526;18.986;2023-12-20T04:22:00;99641.19;;;14.13;55.75
70314;BME280;71040;47.526;18.986;2023-12-20T04:27:01;99615.66;;;14.15;55.56
70314;BME280;71040;47.526;18.986;2023-12-20T04:32:02;99604.28;;;14.14;55.68
70314;BME280;71040;47.526;18.986;2023-12-20T04:37:02;99595.38;;;14.17;55.53
70314;BME280;71040;47.526;18.986;2023-12-20T04:42:03;99592.84;;;14.16;55.52
70314;BME280;71040;47.526;18.986;2023-12-20T04:47:08;99569.34;;;14.12;55.73
70314;BME280;71040;47.526;18.986;2023-12-20T04:52:08;99559.03;;;14.09;55.75
70314;BME280;71040;47.526;18.986;2023-12-20T04:57:09;99554.84;;;14.07;55.77
70314;BME280;71040;47.526;18.986;2023-12-20T05:02:09;99546.19;;;14.05;55.70
70314;BME280;71040;47.526;18.986;2023-12-20T05:07:09;99539.69;;;13.96;55.95
70314;BME280;71040;47.526;18.986;2023-12-20T05:12:10;99542.06;;;14.01;55.89
70314;BME280;71040;47.526;18.986;2023-12-20T05:17:13;99535.19;;;13.98;55.92
70314;BME280;71040;47.526;18.986;2023-12-20T05:22:13;99532.78;;;13.95;55.97
70314;BME280;71040;47.526;18.986;2023-12-20T05:27:13;99547.13;;;13.90;55.92
70314;BME280;71040;47.526;18.986;2023-12-20T05:32:14;99557.91;;;13.85;56.22
70314;BME280;71040;47.526;18.986;2023-12-20T05:37:14;99543.91;;;13.85;56.15
70314;BME280;71040;47.526;18.986;2023-12-20T05:42:15;99528.28;;;13.83;56.04
70314;BME280;71040;47.526;18.986;2023-12-20T05:47:15;99513.16;;;13.87;55.82
70314;BME280;71040;47.526;18.986;2023-12-20T05:52:16;99500.69;;;13.90;55.74
70314;BME280;71040;47.526;18.986;2023-12-20T05:57:16;99506.69;;;13.92;55.70
70314;BME280;71040;47.526;18.986;2023-12-20T06:02:19;99509.84;;;13.97;55.60
70314;BME280;71040;47.526;18.986;2023-12-20T06:07:19;99501.97;;;13.97;55.42
70314;BME280;71040;47.526;18.986;2023-12-20T06:12:20;99499.34;;;13.97;55.41
70314;BME280;71040;47.526;18.986;2023-12-20T06:17:21;99489.88;;;13.95;55.71
70314;BME280;71040;47.526;18.986;2023-12-20T06:22:21;99489.97;;;13.93;55.48
70314;BME280;71040;47.526;18.986;2023-12-20T06:27:21;99501.25;;;13.95;55.48
70314;BME280;71040;47.526;18.986;2023-12-20T06:32:22;99501.34;;;13.94;55.50
70314;BME280;71040;47.526;18.986;2023-12-20T06:37:23;99528.38;;;13.96;55.42
70314;BME280;71040;47.526;18.986;2023-12-20T06:42:24;99553.69;;;13.97;55.58
70314;BME280;71040;47.526;18.986;2023-12-20T06:47:24;99563.47;;;13.95;55.51
70314;BME280;71040;47.526;18.986;2023-12-20T06:52:24;99564.31;;;13.95;55.42
70314;BME280;71040;47.526;18.986;2023-12-20T06:57:25;99555.47;;;13.96;55.34
70314;BME280;71040;47.526;18.986;2023-12-20T07:02:26;99561.69;;;13.95;55.49
70314;BME280;71040;47.526;18.986;2023-12-20T07:07:29;99552.28;;;13.91;55.44
70314;BME280;71040;47.526;18.986;2023-12-20T07:12:32;99546.84;;;13.94;55.28
70314;BME280;71040;47.526;18.986;2023-12-20T07:17:34;99543.38;;;13.94;55.34
70314;BME280;71040;47.526;18.986;2023-12-20T07:22:37;99540.84;;;13.92;55.17
70314;BME280;71040;47.526;18.986;2023-12-20T07:27:38;99544.31;;;13.93;55.26
70314;BME280;71040;47.526;18.986;2023-12-20T07:32:38;99547.78;;;13.93;55.38
70314;BME280;71040;47.526;18.986;2023-12-20T07:37:39;99552.28;;;13.91;55.42
70314;BME280;71040;47.526;18.986;2023-12-20T07:42:40;99548.91;;;13.89;55.34
70314;BME280;71040;47.526;18.986;2023-12-20T07:47:40;99554.06;;;13.91;55.47
70314;BME280;71040;47.526;18.986;2023-12-20T07:52:41;99544.41;;;13.91;55.29
70314;BME280;71040;47.526;18.986;2023-12-20T07:57:59;99540.84;;;13.92;55.37
70314;BME280;71040;47.526;18.986;2023-12-20T08:03:06;99526.78;;;13.93;55.43
70314;BME280;71040;47.526;18.986;2023-12-20T08:08:07;99522.16;;;13.97;55.12
70314;BME280;71040;47.526;18.986;2023-12-20T08:13:10;99516.03;;;13.96;55.33
70314;BME280;71040;47.526;18.986;2023-12-20T08:18:10;99515.22;;;13.96;55.41
70314;BME280;71040;47.526;18.986;2023-12-20T08:23:13;99516.25;;;13.93;55.42
70314;BME280;71040;47.526;18.986;2023-12-20T08:28:16;99523.94;;;13.96;55.32
70314;BME280;71040;47.526;18.986;2023-12-20T08:33:19;99518.88;;;13.93;55.32
70314;BME280;71040;47.526;18.986;2023-12-20T08:38:19;99511.75;;;13.95;55.41
70314;BME280;71040;47.526;18.986;2023-12-20T08:43:20;99522.34;;;13.94;55.59
70314;BME280;71040;47.526;18.986;2023-12-20T08:48:20;99521.50;;;13.93;55.56
70314;BME280;71040;47.526;18.986;2023-12-20T08:53:23;99531.19;;;13.93;55.65
70314;BME280;71040;47.526;18.986;2023-12-20T08:58:25;99523.22;;;13.94;55.66
70314;BME280;71040;47.526;18.986;2023-12-20T09:03:27;99529.31;;;13.95;55.58
70314;BME280;71040;47.526;18.986;2023-12-20T09:08:28;99529.31;;;13.95;55.59
70314;BME280;71040;47.526;18.986;2023-12-20T09:13:28;99534.56;;;13.95;55.67
70314;BME280;71040;47.526;18.986;2023-12-20T09:18:29;99526.56;;;13.96;55.71
70314;BME280;71040;47.526;18.986;2023-12-20T09:23:29;99516.63;;;14.01;55.51
70314;BME280;71040;47.526;18.986;2023-12-20T09:28:32;99505.06;;;14.04;55.33
70314;BME280;71040;47.526;18.986;2023-12-20T09:33:36;99487.63;;;14.03;55.35
70314;BME280;71040;47.526;18.986;2023-12-20T09:38:37;99483.00;;;14.06;55.41
70314;BME280;71040;47.526;18.986;2023-12-20T09:43:37;99478.59;;;14.07;55.45
70314;BME280;71040;47.526;18.986;2023-12-20T09:48:38;99475.13;;;14.06;55.50
70314;BME280;71040;47.526;18.986;2023-12-20T09:53:42;99467.03;;;14.09;55.60
70314;BME280;71040;47.526;18.986;2023-12-20T09:58:43;99461.69;;;14.11;55.30
70314;BME280;71040;47.526;18.986;2023-12-20T10:03:43;99454.53;;;14.13;55.36
70314;BME280;71040;47.526;18.986;2023-12-20T10:08:44;99456.41;;;14.11;55.46
70314;BME280;71040;47.526;18.986;2023-12-20T10:13:44;99441.69;;;14.08;55.54
70314;BME280;71040;47.526;18.986;2023-12-20T10:18:54;99423.41;;;14.07;55.56
70314;BME280;71040;47.526;18.986;2023-12-20T10:23:57;99404.03;;;14.08;55.67
70314;BME280;71040;47.526;18.986;2023-12-20T10:29:00;99392.06;;;14.04;55.84
70314;BME280;71040;47.526;18.986;2023-12-20T10:34:01;99388.50;;;14.05;55.88
70314;BME280;71040;47.526;18.986;2023-12-20T10:39:02;99365.44;;;13.96;56.11
70314;BME280;71040;47.526;18.986;2023-12-20T10:44:04;99364.19;;;14.01;56.22
70314;BME280;71040;47.526;18.986;2023-12-20T10:49:08;99368.50;;;14.02;56.24
70314;BME280;71040;47.526;18.986;2023-12-20T10:54:09;99352.72;;;14.02;56.23
70314;BME280;71040;47.526;18.986;2023-12-20T10:59:13;99363.16;;;14.04;56.42
70314;BME280;71040;47.526;18.986;2023-12-20T11:04:21;99367.66;;;14.02;56.35
70314;BME280;71040;47.526;18.986;2023-12-20T11:09:34;99351.03;;;14.01;56.48
70314;BME280;71040;47.526;18.986;2023-12-20T11:19:43;99319.41;;;14.03;56.74
70314;BME280;71040;47.526;18.986;2023-12-20T11:25:08;99306.16;;;14.04;56.85
70314;BME280;71040;47.526;18.986;2023-12-20T11:30:09;99289.13;;;14.10;56.60
70314;BME280;71040;47.526;18.986;2023-12-20T11:40:15;99311.00;;;12.87;60.07
70314;BME280;71040;47.526;18.986;2023-12-20T11:45:18;99307.91;;;12.37;61.73
70314;BME280;71040;47.526;18.986;2023-12-20T11:50:22;99306.41;;;12.03;62.64
70314;BME280;71040;47.526;18.986;2023-12-20T11:55:24;99324.38;;;11.79;63.72
70314;BME280;71040;47.526;18.986;2023-12-20T12:00:25;99307.06;;;11.60;64.11
70314;BME280;71040;47.526;18.986;2023-12-20T12:05:25;99300.81;;;11.47;64.69
70314;BME280;71040;47.526;18.986;2023-12-20T12:10:26;99287.56;;;11.35;64.78
70314;BME280;71040;47.526;18.986;2023-12-20T12:15:26;99279.38;;;11.25;65.29
70314;BME280;71040;47.526;18.986;2023-12-20T12:20:27;99281.03;;;11.10;65.59
70314;BME280;71040;47.526;18.986;2023-12-20T12:25:29;99302.97;;;11.08;65.80
70314;BME280;71040;47.526;18.986;2023-12-20T12:30:30;99305.09;;;11.01;65.64
70314;BME280;71040;47.526;18.986;2023-12-20T12:35:31;99300.28;;;10.94;65.84
70314;BME280;71040;47.526;18.986;2023-12-20T12:40:34;99289.28;;;10.87;65.94
70314;BME280;71040;47.526;18.986;2023-12-20T12:45:36;99301.75;;;10.82;66.12
70314;BME280;71040;47.526;18.986;2023-12-20T12:50:36;99295.16;;;10.75;66.33
70314;BME280;71040;47.526;18.986;2023-12-20T12:55:37;99299.78;;;10.70;66.50
70314;BME280;71040;47.526;18.986;2023-12-20T13:00:37;99298.19;;;10.67;66.53
70314;BME280;71040;47.526;18.986;2023-12-20T13:05:37;99291.59;;;10.60;66.54
70314;BME280;71040;47.526;18.986;2023-12-20T13:10:38;99292.59;;;10.58;66.31
70314;BME280;71040;47.526;18.986;2023-12-20T13:15:38;99290.19;;;10.53;66.35
70314;BME280;71040;47.526;18.986;2023-12-20T13:20:39;99286.91;;;10.49;66.34
70314;BME280;71040;47.526;18.986;2023-12-20T13:25:41;99278.47;;;10.44;66.57
70314;BME280;71040;47.526;18.986;2023-12-20T13:30:45;99283.84;;;10.41;66.78
70314;BME280;71040;47.526;18.986;2023-12-20T13:35:46;99286.53;;;10.40;66.89
70314;BME280;71040;47.526;18.986;2023-12-20T13:40:48;99285.94;;;10.35;66.55
70314;BME280;71040;47.526;18.986;2023-12-20T13:45:49;99288.53;;;10.35;66.79
70314;BME280;71040;47.526;18.986;2023-12-20T13:50:49;99278.38;;;10.29;66.47
70314;BME280;71040;47.526;18.986;2023-12-20T13:55:49;99285.38;;;10.28;66.93
70314;BME280;71040;47.526;18.986;2023-12-20T14:00:50;99284.72;;;10.25;66.67
70314;BME280;71040;47.526;18.986;2023-12-20T14:05:50;99270.88;;;10.23;67.23
70314;BME280;71040;47.526;18.986;2023-12-20T14:10:53;99275.41;;;10.19;67.26
70314;BME280;71040;47.526;18.986;2023-12-20T14:15:54;99291.13;;;10.17;67.00
70314;BME280;71040;47.526;18.986;2023-12-20T14:20:54;99281.84;;;10.12;67.21
70314;BME280;71040;47.526;18.986;2023-12-20T14:25:55;99271.31;;;10.13;67.00
70314;BME280;71040;47.526;18.986;2023-12-20T14:30:56;99271.47;;;10.10;67.00
70314;BME280;71040;47.526;18.986;2023-12-20T14:35:57;99282.91;;;10.08;67.33
70314;BME280;71040;47.526;18.986;2023-12-20T14:40:57;99280.34;;;10.06;67.48
70314;BME280;71040;47.526;18.986;2023-12-20T14:45:58;99295.34;;;10.03;67.02
70314;BME280;71040;47.526;18.986;2023-12-20T14:50:58;99291.13;;;10.00;67.33
70314;BME280;71040;47.526;18.986;2023-12-20T14:55:59;99298.03;;;10.01;67.09
70314;BME280;71040;47.526;18.986;2023-12-20T15:01:00;99310.31;;;9.99;67.32
70314;BME280;71040;47.526;18.986;2023-12-20T15:06:01;99313.06;;;9.96;67.18
70314;BME280;71040;47.526;18.986;2023-12-20T15:11:01;99318.88;;;10.03;67.32
70314;BME280;71040;47.526;18.986;2023-12-20T15:16:04;99317.94;;;10.73;65.29
70314;BME280;71040;47.526;18.986;2023-12-20T15:21:04;99335.25;;;11.40;63.25
70314;BME280;71040;47.526;18.986;2023-12-20T15:26:05;99345.00;;;11.85;62.09
70314;BME280;71040;47.526;18.986;2023-12-20T15:31:06;99343.41;;;12.12;61.35
70314;BME280;71040;47.526;18.986;2023-12-20T15:36:06;99335.06;;;12.36;60.31
70314;BME280;71040;47.526;18.986;2023-12-20T15:41:07;99326.22;;;12.52;60.26
70314;BME280;71040;47.526;18.986;2023-12-20T15:46:09;99341.31;;;12.63;60.04
70314;BME280;71040;47.526;18.986;2023-12-20T15:51:10;99326.34;;;12.65;59.99
70314;BME280;71040;47.526;18.986;2023-12-20T15:56:10;99356.06;;;12.80;59.84
70314;BME280;71040;47.526;18.986;2023-12-20T16:01:11;99361.59;;;12.89;59.53
70314;BME280;71040;47.526;18.986;2023-12-20T16:06:12;99364.13;;;12.91;59.64
70314;BME280;71040;47.526;18.986;2023-12-20T16:11:15;99373.69;;;12.92;59.96
70314;BME280;71040;47.526;18.986;2023-12-20T16:16:15;99365.59;;;12.95;59.72
70314;BME280;71040;47.526;18.986;2023-12-20T16:21:16;99389.88;;;12.98;59.77
70314;BME280;71040;47.526;18.986;2023-12-20T16:26:17;99392.25;;;13.03;59.75
70314;BME280;71040;47.526;18.986;2023-12-20T16:31:18;99390.09;;;13.10;59.62
70314;BME280;71040;47.526;18.986;2023-12-20T16:36:18;99381.19;;;13.12;59.66
70314;BME280;71040;47.526;18.986;2023-12-20T16:41:18;99398.44;;;13.16;59.47
70314;BME280;71040;47.526;18.986;2023-12-20T16:46:19;99401.91;;;13.17;59.48
70314;BME280;71040;47.526;18.986;2023-12-20T16:51:19;99416.28;;;13.25;59.36
70314;BME280;71040;47.526;18.986;2023-12-20T16:56:20;99424.72;;;13.30;59.28
70314;BME280;71040;47.526;18.986;2023-12-20T17:01:22;99410.09;;;13.26;59.19
70314;BME280;71040;47.526;18.986;2023-12-20T17:06:25;99426.97;;;13.36;59.37
70314;BME280;71040;47.526;18.986;2023-12-20T17:11:26;99436.34;;;13.40;59.17
70314;BME280;71040;47.526;18.986;2023-12-20T17:16:27;99436.16;;;13.44;59.28
70314;BME280;71040;47.526;18.986;2023-12-20T17:21:30;99443.94;;;13.45;59.24
70314;BME280;71040;47.526;18.986;2023-12-20T17:26:33;99451.63;;;13.48;59.03
70314;BME280;71040;47.526;18.986;2023-12-20T17:31:34;99449.94;;;13.47;59.23
70314;BME280;71040;47.526;18.986;2023-12-20T17:36:35;99451.56;;;13.50;59.19
70314;BME280;71040;47.526;18.986;2023-12-20T17:41:35;99450.59;;;13.51;59.14
70314;BME280;71040;47.526;18.986;2023-12-20T17:46:38;99456.31;;;13.57;59.04
70314;BME280;71040;47.526;18.986;2023-12-20T17:51:38;99473.84;;;13.57;58.76
70314;BME280;71040;47.526;18.986;2023-12-20T17:56:38;99475.25;;;13.62;58.92
70314;BME280;71040;47.526;18.986;2023-12-20T18:01:42;99481.91;;;13.68;59.13
70314;BME280;71040;47.526;18.986;2023-12-20T18:06:42;99493.28;;;13.68;58.95
70314;BME280;71040;47.526;18.986;2023-12-20T18:11:42;99488.69;;;13.72;58.64
70314;BME280;71040;47.526;18.986;2023-12-20T18:16:43;99489.53;;;13.72;58.69
70314;BME280;71040;47.526;18.986;2023-12-20T18:21:44;99491.00;;;13.76;58.58
70314;BME280;71040;47.526;18.986;2023-12-20T18:26:46;99497.88;;;13.79;58.48
70314;BME280;71040;47.526;18.986;2023-12-20T18:31:47;99488.13;;;13.81;58.51
70314;BME280;71040;47.526;18.986;2023-12-20T18:36:47;99476.84;;;13.79;58.60
70314;BME280;71040;47.526;18.986;2023-12-20T18:41:48;99473.19;;;13.82;58.48
70314;BME280;71040;47.526;18.986;2023-12-20T18:46:48;99474.97;;;13.81;58.49
70314;BME280;71040;47.526;18.986;2023-12-20T18:51:49;99470.28;;;13.44;59.36
70314;BME280;71040;47.526;18.986;2023-12-20T18:56:49;99486.88;;;12.70;61.36
70314;BME280;71040;47.526;18.986;2023-12-20T19:01:50;99493.44;;;12.16;62.86
70314;BME280;71040;47.526;18.986;2023-12-20T19:06:50;99491.06;;;11.80;63.80
70314;BME280;71040;47.526;18.986;2023-12-20T19:11:56;99503.63;;;11.56;64.49
70314;BME280;71040;47.526;18.986;2023-12-20T19:16:57;99516.00;;;11.37;64.95
70314;BME280;71040;47.526;18.986;2023-12-20T19:22:01;99520.25;;;11.22;65.34
70314;BME280;71040;47.526;18.986;2023-12-20T19:27:10;99533.94;;;11.10;65.51
70314;BME280;71040;47.526;18.986;2023-12-20T19:32:10;99542.34;;;10.99;65.82
70314;BME280;71040;47.526;18.986;2023-12-20T19:37:11;99537.56;;;10.90;66.10
70314;BME280;71040;47.526;18.986;2023-12-20T19:42:11;99542.41;;;10.80;65.98
70314;BME280;71040;47.526;18.986;2023-12-20T19:47:11;99535.00;;;10.71;66.22
70314;BME280;71040;47.526;18.986;2023-12-20T19:52:13;99525.63;;;10.67;66.08
70314;BME280;71040;47.526;18.986;2023-12-20T19:57:13;99528.59;;;10.60;66.46
70314;BME280;71040;47.526;18.986;2023-12-20T20:02:14;99538.44;;;10.55;66.75
70314;BME280;71040;47.526;18.986;2023-12-20T20:07:15;99535.09;;;10.51;66.46
70314;BME280;71040;47.526;18.986;2023-12-20T20:12:19;99533.66;;;10.45;66.88
70314;BME280;71040;47.526;18.986;2023-12-20T20:17:20;99525.22;;;10.39;66.69
70314;BME280;71040;47.526;18.986;2023-12-20T20:22:28;99539.31;;;10.36;66.69
70314;BME280;71040;47.526;18.986;2023-12-20T20:27:30;99549.06;;;10.33;66.79
70314;BME280;71040;47.526;18.986;2023-12-20T20:32:35;99547.50;;;10.29;67.10
70314;BME280;71040;47.526;18.986;2023-12-20T20:37:36;99548.56;;;10.25;67.00
70314;BME280;71040;47.526;18.986;2023-12-20T20:42:36;99547.78;;;10.23;66.99
70314;BME280;71040;47.526;18.986;2023-12-20T20:47:36;99541.88;;;10.17;67.01
70314;BME280;71040;47.526;18.986;2023-12-20T20:52:37;99543.72;;;10.15;67.12
70314;BME280;71040;47.526;18.986;2023-12-20T20:57:38;99543.94;;;10.11;66.76
70314;BME280;71040;47.526;18.986;2023-12-20T21:02:38;99550.16;;;10.08;67.20
70314;BME280;71040;47.526;18.986;2023-12-20T21:07:38;99543.28;;;10.06;66.89
70314;BME280;71040;47.526;18.986;2023-12-20T21:12:44;99522.69;;;10.00;67.14
70314;BME280;71040;47.526;18.986;2023-12-20T21:17:44;99522.03;;;9.95;67.08
70314;BME280;71040;47.526;18.986;2023-12-20T21:22:45;99534.25;;;9.94;67.07
70314;BME280;71040;47.526;18.986;2023-12-20T21:27:45;99540.50;;;9.92;66.93
70314;BME280;71040;47.526;18.986;2023-12-20T21:32:46;99532.84;;;9.87;67.03
70314;BME280;71040;47.526;18.986;2023-12-20T21:37:47;99525.94;;;9.86;67.04
70314;BME280;71040;47.526;18.986;2023-12-20T21:42:48;99513.38;;;9.75;67.36
70314;BME280;71040;47.526;18.986;2023-12-20T21:47:49;99527.97;;;9.79;67.46
70314;BME280;71040;47.526;18.986;2023-12-20T21:52:49;99521.13;;;9.96;66.91
70314;BME280;71040;47.526;18.986;2023-12-20T21:57:53;99526.25;;;10.72;64.73
70314;BME280;71040;47.526;18.986;2023-12-20T22:02:53;99528.47;;;11.32;62.93
70314;BME280;71040;47.526;18.986;2023-12-20T22:07:53;99541.44;;;11.68;61.62
70314;BME280;71040;47.526;18.986;2023-12-20T22:12:54;99542.78;;;11.92;61.04
70314;BME280;71040;47.526;18.986;2023-12-20T22:17:54;99522.63;;;12.10;60.49
70314;BME280;71040;47.526;18.986;2023-12-20T22:22:55;99519.16;;;12.25;60.07
70314;BME280;71040;47.526;18.986;2023-12-20T22:27:55;99521.09;;;12.37;60.12
70314;BME280;71040;47.526;18.986;2023-12-20T22:32:55;99518.91;;;12.45;59.86
70314;BME280;71040;47.526;18.986;2023-12-20T22:37:56;99519.22;;;12.55;59.67
70314;BME280;71040;47.526;18.986;2023-12-20T22:42:56;99522.34;;;12.61;59.48
70314;BME280;71040;47.526;18.986;2023-12-20T22:47:57;99519.47;;;12.66;59.48
70314;BME280;71040;47.526;18.986;2023-12-20T22:52:57;99513.00;;;12.72;59.33
70314;BME280;71040;47.526;18.986;2023-12-20T22:57:57;99510.31;;;12.73;59.56
70314;BME280;71040;47.526;18.986;2023-12-20T23:02:58;99514.38;;;12.79;59.43
70314;BME280;71040;47.526;18.986;2023-12-20T23:07:59;99500.22;;;12.81;59.44
70314;BME280;71040;47.526;18.986;2023-12-20T23:12:59;99491.25;;;12.85;59.40
70314;BME280;71040;47.526;18.986;2023-12-20T23:18:00;99490.91;;;12.91;59.16
70314;BME280;71040;47.526;18.986;2023-12-20T23:23:00;99485.19;;;12.99;59.22
70314;BME280;71040;47.526;18.986;2023-12-20T23:28:01;99470.84;;;13.04;58.94
70314;BME280;71040;47.526;18.986;2023-12-20T23:33:02;99478.28;;;13.12;59.02
70314;BME280;71040;47.526;18.986;2023-12-20T23:38:02;99467.53;;;13.17;58.96
70314;BME280;71040;47.526;18.986;2023-12-20T23:43:03;99470.75;;;13.22;58.72
70314;BME280;71040;47.526;18.986;2023-12-20T23:48:04;99474.75;;;13.27;58.82
70314;BME280;71040;47.526;18.986;2023-12-20T23:53:04;99477.31;;;13.29;58.60
70314;BME280;71040;47.526;18.986;2023-12-20T23:58:04;99467.66;;;13.29;58.88
